Time;durP1;ratioP1;P1;durP2;ratioP2;P2;SDS_P1;SDS_P2;PMS_P1;PMS_P2;Temp;Humidity;BMP_temperature;BMP_pressure;BME280_temperature;BME280_humidity;BME280_pressure;Samples;Min_cycle;Max_cycle;Signal;HPM_P1;HPM_P2
2022/03/14 00:00:47;;;;;;;122.80;51.53;;;;;;;20.45;100.00;98333.50;4984963;28;20050;-71
2022/03/14 00:03:50;;;;;;;100.60;50.53;;;;;;;20.40;100.00;98343.50;4964990;28;20081;-71
2022/03/14 00:06:26;;;;;;;117.43;48.83;;;;;;;20.41;100.00;98338.16;4966332;28;20051;-71
2022/03/14 00:09:16;;;;;;;120.32;49.45;;;;;;;20.35;100.00;98345.63;4980361;28;20710;-70
2022/03/14 00:11:57;;;;;;;102.15;48.42;;;;;;;20.30;100.00;98353.78;5006245;28;20058;-71
2022/03/14 00:14:46;;;;;;;98.47;48.42;;;;;;;20.27;100.00;98351.41;4990398;28;20038;-71
2022/03/14 00:17:28;;;;;;;101.30;49.70;;;;;;;20.15;100.00;98345.31;4979627;28;20050;-71
2022/03/14 00:20:24;;;;;;;100.53;49.22;;;;;;;20.26;100.00;98357.59;4981431;28;20049;-70
2022/03/14 00:23:00;;;;;;;94.25;47.70;;;;;;;20.17;100.00;98348.66;4988529;28;20069;-71
2022/03/14 00:25:57;;;;;;;98.15;49.47;;;;;;;20.10;100.00;98347.44;4989290;28;20669;-71
2022/03/14 00:28:33;;;;;;;87.75;47.13;;;;;;;20.11;100.00;98354.31;4997440;28;20053;-71
2022/03/14 00:31:28;;;;;;;110.63;49.13;;;;;;;20.05;100.00;98360.00;5005050;28;20068;-70
2022/03/14 00:34:03;;;;;;;98.55;45.75;;;;;;;19.96;100.00;98360.66;4974545;28;20145;-70
2022/03/14 00:36:52;;;;;;;95.30;46.92;;;;;;;19.96;100.00;98358.06;4967829;28;20123;-71
2022/03/14 00:39:35;;;;;;;93.32;46.38;;;;;;;20.02;100.00;98362.84;4987936;28;20522;-71
2022/03/14 00:42:29;;;;;;;87.13;47.17;;;;;;;20.06;100.00;98364.28;4983672;28;20085;-71
2022/03/14 00:45:18;;;;;;;87.60;46.90;;;;;;;19.98;100.00;98361.41;4970359;28;20046;-70
2022/03/14 00:48:12;;;;;;;87.40;47.88;;;;;;;20.00;100.00;98376.97;4966259;28;20059;-70
2022/03/14 00:50:50;;;;;;;97.97;46.78;;;;;;;19.97;100.00;98372.81;4968449;28;20074;-71
2022/03/14 00:53:44;;;;;;;89.90;47.78;;;;;;;19.96;100.00;98378.13;4969154;28;20115;-71
2022/03/14 00:56:20;;;;;;;97.07;46.90;;;;;;;19.99;100.00;98373.53;4967465;28;20047;-70
2022/03/14 00:59:08;;;;;;;93.28;47.00;;;;;;;20.00;100.00;98385.66;4968538;28;20051;-70
2022/03/14 01:01:50;;;;;;;85.95;48.13;;;;;;;19.99;100.00;98389.22;4969299;28;20142;-70
2022/03/14 01:04:45;;;;;;;87.10;45.55;;;;;;;19.96;100.00;98399.91;4988841;28;20054;-70
2022/03/14 01:07:21;;;;;;;94.85;47.85;;;;;;;19.89;100.00;98401.28;4988146;28;20070;-70
2022/03/14 01:10:17;;;;;;;78.97;45.20;;;;;;;19.91;100.00;98409.88;4987553;28;20137;-71
2022/03/14 01:12:52;;;;;;;87.13;46.33;;;;;;;19.85;100.00;98410.31;4984725;28;20605;-71
2022/03/14 01:15:43;;;;;;;91.43;47.92;;;;;;;19.94;100.00;98416.66;4971502;28;20046;-70
2022/03/14 01:18:32;;;;;;;90.57;48.17;;;;;;;19.96;100.00;98412.13;4969205;28;20046;-71
2022/03/14 01:21:13;;;;;;;82.47;47.17;;;;;;;19.93;100.00;98415.81;4965909;28;20724;-69
2022/03/14 01:24:01;;;;;;;89.25;50.58;;;;;;;19.91;100.00;98414.25;4966441;28;20379;-69
2022/03/14 01:26:44;;;;;;;101.85;53.47;;;;;;;19.79;100.00;98416.78;4969049;28;20054;-70
2022/03/14 01:29:34;;;;;;;90.43;49.95;;;;;;;19.77;100.00;98412.63;4968644;28;20055;-70
2022/03/14 01:32:16;;;;;;;96.57;50.35;;;;;;;19.87;100.00;98421.50;4967590;28;20266;-71
2022/03/14 01:35:07;;;;;;;90.85;52.03;;;;;;;19.96;100.00;98419.97;4967839;28;20070;-70
2022/03/14 01:37:49;;;;;;;92.20;51.90;;;;;;;19.92;100.00;98423.78;4968407;28;20066;-70
2022/03/14 01:40:37;;;;;;;97.10;52.58;;;;;;;19.93;100.00;98426.28;4983461;28;20050;-70
2022/03/14 01:43:26;;;;;;;98.38;52.90;;;;;;;19.94;100.00;98422.72;4982310;28;20074;-70
2022/03/14 01:46:20;;;;;;;95.88;53.75;;;;;;;19.96;100.00;98427.81;5006850;28;20042;-70
2022/03/14 01:48:56;;;;;;;89.53;52.30;;;;;;;20.10;100.00;98430.28;5005344;28;20076;-71
2022/03/14 01:51:44;;;;;;;100.20;52.95;;;;;;;20.03;100.00;98427.28;4990269;28;20084;-72
2022/03/14 01:54:26;;;;;;;91.03;51.90;;;;;;;20.11;100.00;98427.53;5011159;28;20053;-72
2022/03/14 01:57:18;;;;;;;97.85;52.72;;;;;;;20.17;100.00;98440.19;5002794;28;20050;-71
2022/03/14 02:00:01;;;;;;;106.72;52.15;;;;;;;20.22;100.00;98445.91;5007707;28;20128;-71
2022/03/14 02:02:57;;;;;;;94.57;51.83;;;;;;;20.31;100.00;98448.81;5006613;28;20351;-71
2022/03/14 02:05:37;;;;;;;97.95;51.90;;;;;;;20.42;100.00;98443.66;5005800;28;20046;-70
2022/03/14 02:08:34;;;;;;;100.38;54.13;;;;;;;20.42;100.00;98449.75;5004800;28;20406;-71
2022/03/14 02:11:10;;;;;;;100.13;52.90;;;;;;;20.62;100.00;98454.31;5005729;28;20115;-70
2022/03/14 02:14:06;;;;;;;113.30;56.72;;;;;;;20.73;100.00;98450.91;5005761;28;20061;-69
2022/03/14 02:16:41;;;;;;;98.93;55.28;;;;;;;20.90;100.00;98449.63;5002364;28;20103;-69
2022/03/14 02:19:35;;;;;;;99.63;58.33;;;;;;;21.06;100.00;98454.53;5003506;28;20059;-71
2022/03/14 02:22:14;;;;;;;114.63;57.05;;;;;;;21.58;100.00;98469.72;5004764;28;20060;-70
2022/03/14 02:25:08;;;;;;;121.15;59.47;;;;;;;21.76;100.00;98470.91;5005450;28;20050;-69
2022/03/14 02:27:55;;;;;;;144.77;60.65;;;;;;;21.98;100.00;98472.66;5005557;28;20100;-70
2022/03/14 02:30:44;;;;;;;110.80;57.45;;;;;;;22.30;100.00;98481.41;4990673;28;20498;-70
2022/03/14 02:33:26;;;;;;;99.07;58.85;;;;;;;22.52;100.00;98483.94;5004960;28;20279;-71
2022/03/14 02:36:15;;;;;;;111.43;62.33;;;;;;;22.75;100.00;98483.88;5003651;28;20068;-71
2022/03/14 02:38:58;;;;;;;107.85;63.63;;;;;;;22.87;100.00;98485.50;5007355;28;20385;-71
2022/03/14 02:41:52;;;;;;;109.97;64.90;;;;;;;22.97;100.00;98488.19;4982588;28;20042;-72
2022/03/14 02:44:34;;;;;;;113.18;65.88;;;;;;;23.17;100.00;98493.44;5001245;28;20061;-72
2022/03/14 02:47:24;;;;;;;127.18;70.95;;;;;;;23.33;100.00;98484.25;5000054;28;20614;-72
2022/03/14 02:50:06;;;;;;;122.72;73.60;;;;;;;23.47;100.00;98487.34;5005415;28;20050;-71
2022/03/14 02:52:54;;;;;;;128.32;74.00;;;;;;;23.67;100.00;98490.09;4987319;28;20060;-72
2022/03/14 02:55:37;;;;;;;148.27;78.95;;;;;;;23.93;100.00;98492.13;5003041;28;20046;-72
2022/03/14 02:58:30;;;;;;;157.20;85.75;;;;;;;24.00;100.00;98490.63;5004967;28;20054;-72
2022/03/14 03:01:15;;;;;;;134.23;83.07;;;;;;;24.41;100.00;98496.69;5002507;28;20065;-72
2022/03/14 03:04:14;;;;;;;155.07;90.53;;;;;;;24.66;100.00;98498.75;4976044;28;20050;-71
2022/03/14 03:06:59;;;;;;;158.65;94.50;;;;;;;24.59;100.00;98508.19;4996702;28;20187;-72
2022/03/14 03:09:48;;;;;;;174.55;100.68;;;;;;;24.85;100.00;98500.56;5005358;28;20053;-72
2022/03/14 03:12:32;;;;;;;181.60;108.63;;;;;;;24.89;100.00;98494.03;5004124;28;20081;-72
2022/03/14 03:15:29;;;;;;;206.18;114.55;;;;;;;24.94;100.00;98506.81;5004388;28;20133;-72
2022/03/14 03:18:06;;;;;;;215.70;120.88;;;;;;;24.95;100.00;98503.22;5004410;28;20042;-71
2022/03/14 03:21:00;;;;;;;259.65;133.57;;;;;;;25.02;100.00;98499.03;5001383;28;20053;-72
2022/03/14 03:23:36;;;;;;;241.13;132.52;;;;;;;24.90;100.00;98505.41;5006057;28;20050;-72
2022/03/14 03:26:34;;;;;;;227.35;127.50;;;;;;;25.12;100.00;98503.34;4981883;28;20046;-72
2022/03/14 03:29:12;;;;;;;214.70;122.20;;;;;;;25.17;100.00;98506.38;5002359;28;20049;-72
2022/03/14 03:32:06;;;;;;;221.18;126.32;;;;;;;25.49;100.00;98510.44;5003541;28;20214;-72
2022/03/14 03:34:42;;;;;;;224.38;120.88;;;;;;;25.51;100.00;98511.97;5005121;28;20045;-72
2022/03/14 03:37:40;;;;;;;214.40;120.10;;;;;;;25.59;100.00;98513.91;5003244;28;20054;-72
2022/03/14 03:40:16;;;;;;;229.35;120.22;;;;;;;25.77;100.00;98520.09;5003814;28;20060;-72
2022/03/14 03:43:12;;;;;;;227.55;125.82;;;;;;;25.93;100.00;98522.13;4985672;28;20054;-73
2022/03/14 03:45:54;;;;;;;225.15;119.32;;;;;;;25.99;100.00;98521.53;4999396;28;20061;-72
2022/03/14 03:48:43;;;;;;;238.38;120.45;;;;;;;26.09;100.00;98527.59;5003936;28;20759;-73
2022/03/14 03:51:25;;;;;;;229.00;124.90;;;;;;;26.34;100.00;98517.31;5003479;28;20147;-73
2022/03/14 03:54:14;;;;;;;219.27;120.60;;;;;;;26.76;100.00;98526.31;4984640;28;20077;-72
2022/03/14 03:56:56;;;;;;;201.13;118.88;;;;;;;27.07;95.18;98525.91;5006963;28;20143;-73
2022/03/14 03:59:45;;;;;;;195.45;111.65;;;;;;;27.56;89.60;98535.06;4987514;28;20144;-72
2022/03/14 04:02:27;;;;;;;198.48;105.70;;;;;;;27.79;84.24;98537.00;5007425;28;20054;-73
2022/03/14 04:05:18;;;;;;;176.68;95.32;;;;;;;27.76;77.03;98539.97;5003832;28;20046;-73
2022/03/14 04:08:00;;;;;;;173.20;90.97;;;;;;;27.85;73.66;98550.59;5006822;28;20054;-72
2022/03/14 04:10:54;;;;;;;159.52;88.75;;;;;;;28.94;73.09;98557.56;5006504;28;20053;-72
2022/03/14 04:13:36;;;;;;;175.38;92.18;;;;;;;29.14;70.47;98545.63;5008474;28;20042;-71
2022/03/14 04:16:26;;;;;;;160.98;88.47;;;;;;;29.36;69.70;98545.97;5006121;28;20556;-72
2022/03/14 04:19:08;;;;;;;168.05;91.38;;;;;;;29.62;66.13;98549.22;5004845;28;20408;-69
2022/03/14 04:21:57;;;;;;;185.43;94.57;;;;;;;29.74;65.25;98549.72;5005214;28;20053;-70
2022/03/14 04:24:40;;;;;;;156.40;80.47;;;;;;;30.18;64.75;98544.75;5017746;28;20536;-70
2022/03/14 04:27:27;;;;;;;132.57;72.82;;;;;;;29.74;62.34;98549.72;5006913;28;20052;-70
2022/03/14 04:30:23;;;;;;;132.45;71.10;;;;;;;30.19;62.02;98546.41;5007335;28;20072;-72
2022/03/14 04:32:58;;;;;;;145.02;70.88;;;;;;;29.59;63.16;98538.97;5008238;28;20050;-72
2022/03/14 04:35:53;;;;;;;141.93;70.63;;;;;;;29.53;61.90;98547.63;4996533;28;20057;-73
2022/03/14 04:38:29;;;;;;;127.18;60.17;;;;;;;29.70;62.55;98543.91;5006698;28;20046;-71
2022/03/14 04:41:24;;;;;;;121.55;63.28;;;;;;;29.90;64.76;98537.19;5006173;28;20042;-71
2022/03/14 04:44:12;;;;;;;124.03;58.10;;;;;;;29.82;61.69;98539.88;5011007;28;20579;-71
2022/03/14 04:47:01;;;;;;;115.05;59.20;;;;;;;30.10;61.96;98547.44;5001973;28;20053;-71
2022/03/14 04:49:42;;;;;;;107.00;52.23;;;;;;;30.15;62.20;98550.41;5006891;28;20553;-67
2022/03/14 04:52:40;;;;;;;97.43;52.17;;;;;;;30.30;62.81;98548.69;4974457;28;20351;-70
2022/03/14 04:55:16;;;;;;;97.95;49.80;;;;;;;30.47;63.35;98549.41;5007961;28;20053;-71
2022/03/14 04:58:05;;;;;;;88.68;43.83;;;;;;;30.70;60.38;98564.44;5008859;28;20058;-67
2022/03/14 05:00:47;;;;;;;88.25;47.42;;;;;;;30.61;58.75;98570.81;5004726;28;20049;-72
2022/03/14 05:03:43;;;;;;;83.00;42.75;;;;;;;30.92;61.46;98581.41;5010284;28;20123;-70
2022/03/14 05:06:19;;;;;;;67.95;38.75;;;;;;;30.90;65.53;98571.91;5005211;28;20069;-72
2022/03/14 05:09:19;;;;;;;80.25;35.53;;;;;;;31.23;59.62;98584.00;5011952;28;20041;-70
2022/03/14 05:12:03;;;;;;;75.53;37.78;;;;;;;31.17;59.71;98579.41;4995992;28;20104;-71
2022/03/14 05:15:01;;;;;;;89.03;44.00;;;;;;;30.72;59.76;98574.91;4992934;28;20108;-70
2022/03/14 05:17:37;;;;;;;104.28;48.97;;;;;;;31.04;63.03;98574.66;5002360;28;20155;-72
2022/03/14 05:20:36;;;;;;;94.30;46.55;;;;;;;31.32;61.17;98577.59;5012433;28;20153;-72
2022/03/14 05:23:12;;;;;;;82.97;41.15;;;;;;;31.40;60.58;98574.03;5005562;28;20050;-73
2022/03/14 05:26:01;;;;;;;76.05;37.80;;;;;;;31.62;59.80;98577.69;5004882;28;20054;-70
2022/03/14 05:28:49;;;;;;;74.82;39.95;;;;;;;31.54;59.49;98576.72;5004836;28;20176;-73
2022/03/14 05:31:39;;;;;;;70.10;34.63;;;;;;;31.43;59.67;98574.53;4996858;28;20057;-71
2022/03/14 05:34:22;;;;;;;59.13;30.38;;;;;;;31.66;61.61;98581.66;4997713;28;20157;-72
2022/03/14 05:37:24;;;;;;;57.40;32.00;;;;;;;31.55;58.37;98573.06;4998666;28;20026;-72
2022/03/14 05:40:15;;;;;;;75.55;36.47;;;;;;;31.28;59.25;98576.31;4983875;28;20042;-72
2022/03/14 05:43:17;;;;;;;59.35;32.42;;;;;;;31.67;61.93;98568.16;4999344;28;20054;-73
2022/03/14 05:46:04;;;;;;;54.28;31.20;;;;;;;31.98;60.95;98573.28;5013455;28;20054;-71
2022/03/14 05:49:00;;;;;;;58.03;31.20;;;;;;;32.12;59.78;98572.44;4965594;28;20175;-70
2022/03/14 05:51:37;;;;;;;180.48;36.25;;;;;;;32.07;60.34;98558.03;5004256;28;20056;-68
2022/03/14 05:54:37;;;;;;;41.80;20.48;;;;;;;32.07;56.20;98568.69;5012582;28;20168;-70
2022/03/14 05:57:12;;;;;;;39.00;22.20;;;;;;;31.71;55.75;98560.59;5025027;28;20042;-69
2022/03/14 06:00:01;;;;;;;58.40;27.17;;;;;;;31.71;57.46;98556.09;5024277;28;20523;-71
2022/03/14 06:02:54;;;;;;;46.10;26.25;;;;;;;32.16;58.17;98552.44;5021964;28;20049;-69
2022/03/14 06:05:43;;;;;;;43.42;20.98;;;;;;;32.17;54.72;98546.06;4999638;28;20535;-69
2022/03/14 06:08:25;;;;;;;46.72;24.55;;;;;;;32.17;54.26;98556.72;4996454;28;20041;-68
2022/03/14 06:11:20;;;;;;;53.45;28.02;;;;;;;32.23;58.83;98545.34;5015080;28;20046;-69
2022/03/14 06:13:56;;;;;;;51.40;24.60;;;;;;;32.10;54.94;98542.47;5006773;28;20101;-70
2022/03/14 06:16:45;;;;;;;41.85;24.00;;;;;;;32.51;55.34;98536.59;5005867;28;20049;-70
2022/03/14 06:19:28;;;;;;;43.67;22.88;;;;;;;32.33;53.59;98529.03;4989100;28;20061;-71
2022/03/14 06:22:28;;;;;;;42.65;20.83;;;;;;;32.12;52.66;98536.97;5005826;28;20160;-70
2022/03/14 06:25:05;;;;;;;40.05;21.75;;;;;;;32.66;52.51;98540.06;5005214;28;20072;-70
2022/03/14 06:27:54;;;;;;;47.05;24.38;;;;;;;32.56;54.24;98534.22;5023328;28;20045;-70
2022/03/14 06:30:36;;;;;;;51.15;27.25;;;;;;;32.63;56.68;98532.44;5011784;28;20145;-71
2022/03/14 06:33:25;;;;;;;51.92;25.00;;;;;;;32.75;54.78;98522.94;5005816;28;20058;-71
2022/03/14 06:36:08;;;;;;;43.55;25.90;;;;;;;32.52;57.67;98524.94;5001136;28;20064;-70
2022/03/14 06:38:59;;;;;;;51.13;25.02;;;;;;;32.70;52.71;98528.03;5004741;28;20128;-70
2022/03/14 06:41:40;;;;;;;35.22;21.48;;;;;;;32.69;51.35;98523.69;5001793;28;20057;-70
2022/03/14 06:44:39;;;;;;;41.70;24.17;;;;;;;32.67;56.12;98515.03;5004791;28;20061;-70
2022/03/14 06:47:35;;;;;;;48.67;25.17;;;;;;;32.82;54.05;98506.97;4989421;28;20502;-70
2022/03/14 06:50:11;;;;;;;44.53;24.02;;;;;;;32.65;53.28;98496.53;5004650;28;20140;-69
2022/03/14 06:53:06;;;;;;;44.30;24.52;;;;;;;32.63;53.83;98495.91;5006150;28;20381;-69
2022/03/14 06:55:42;;;;;;;43.78;23.60;;;;;;;32.89;53.84;98500.66;5005044;28;20092;-69
2022/03/14 06:58:30;;;;;;;39.50;22.00;;;;;;;32.84;51.06;98505.78;5003108;28;20057;-70
2022/03/14 07:01:19;;;;;;;43.90;21.45;;;;;;;32.89;50.77;98492.66;4985543;28;20069;-70
2022/03/14 07:04:02;;;;;;;36.35;20.58;;;;;;;32.98;52.06;98490.69;4986925;28;20085;-70
2022/03/14 07:06:52;;;;;;;40.42;21.58;;;;;;;33.02;53.10;98481.28;4976951;28;20443;-69
2022/03/14 07:09:35;;;;;;;44.97;22.77;;;;;;;33.08;52.97;98474.34;4989940;28;20124;-69
2022/03/14 07:12:25;;;;;;;52.40;23.42;;;;;;;32.96;52.56;98472.22;4969574;28;20050;-69
2022/03/14 07:15:16;;;;;;;41.05;22.27;;;;;;;32.62;54.16;98469.41;4985028;28;20070;-71
2022/03/14 07:17:58;;;;;;;51.38;23.10;;;;;;;32.53;54.29;98467.88;4984242;28;20534;-70
2022/03/14 07:20:48;;;;;;;47.63;21.15;;;;;;;32.61;56.06;98457.91;4984829;28;20070;-70
2022/03/14 07:23:37;;;;;;;41.88;21.25;;;;;;;32.75;53.02;98469.56;4984461;28;20045;-70
2022/03/14 07:26:19;;;;;;;44.97;21.52;;;;;;;32.95;57.04;98459.88;4977207;28;20054;-70
2022/03/14 07:29:08;;;;;;;38.28;20.55;;;;;;;32.62;56.83;98469.41;4982859;28;20050;-68
2022/03/14 07:31:50;;;;;;;39.70;20.77;;;;;;;32.79;52.96;98465.50;4984083;28;20054;-69
2022/03/14 07:34:40;;;;;;;54.28;20.42;;;;;;;32.98;57.89;98458.66;4982622;28;20359;-70
2022/03/14 07:37:21;;;;;;;37.38;15.90;;;;;;;33.04;49.23;98457.91;4980861;28;20061;-70
2022/03/14 07:40:11;;;;;;;38.88;17.60;;;;;;;33.09;51.01;98449.28;4982513;28;20050;-70
2022/03/14 07:43:11;;;;;;;43.55;21.80;;;;;;;33.03;52.73;98441.03;4982504;28;20112;-70
2022/03/14 07:45:52;;;;;;;39.40;20.63;;;;;;;33.19;52.91;98431.06;5002236;28;20471;-70
2022/03/14 07:48:41;;;;;;;42.90;19.63;;;;;;;33.08;50.07;98429.75;5007474;28;20050;-70
2022/03/14 07:51:36;;;;;;;39.17;19.42;;;;;;;32.97;54.08;98419.63;5018331;28;20049;-71
2022/03/14 07:54:12;;;;;;;35.88;19.00;;;;;;;33.11;51.96;98420.56;5003849;28;20046;-71
2022/03/14 07:57:00;;;;;;;40.03;17.58;;;;;;;33.18;50.23;98429.44;4998087;28;20054;-70
2022/03/14 07:59:46;;;;;;;34.33;19.75;;;;;;;33.22;50.23;98409.34;5000635;28;20369;-70
2022/03/14 08:02:34;;;;;;;31.70;17.92;;;;;;;33.04;51.47;98410.66;4988825;28;20042;-70
2022/03/14 08:05:19;;;;;;;35.58;15.75;;;;;;;32.78;49.35;98407.78;5023298;28;20046;-70
2022/03/14 08:08:08;;;;;;;30.30;16.95;;;;;;;32.64;52.19;98408.69;5021347;28;20041;-70
2022/03/14 08:11:01;;;;;;;42.50;18.17;;;;;;;32.67;51.45;98402.94;5005919;28;20107;-70
2022/03/14 08:13:46;;;;;;;31.40;17.75;;;;;;;32.88;51.80;98400.28;5005503;28;20045;-70
2022/03/14 08:16:35;;;;;;;38.63;18.20;;;;;;;32.72;52.47;98400.56;5005737;28;20107;-66
2022/03/14 08:19:26;;;;;;;36.80;17.33;;;;;;;32.66;51.87;98396.78;5010531;28;20061;-69
2022/03/14 08:22:14;;;;;;;32.47;17.70;;;;;;;32.54;52.00;98394.84;5011591;28;20057;-69
2022/03/14 08:24:56;;;;;;;30.38;18.40;;;;;;;32.52;54.57;98391.53;5012084;28;20060;-69
2022/03/14 08:27:46;;;;;;;38.75;18.42;;;;;;;32.47;53.28;98386.78;5012191;28;20049;-68
2022/03/14 08:30:35;;;;;;;33.85;18.85;;;;;;;32.22;55.05;98383.69;5010312;28;20052;-68
2022/03/14 08:33:26;;;;;;;39.50;19.15;;;;;;;32.26;54.96;98382.28;5004221;28;20120;-68
2022/03/14 08:36:08;;;;;;;38.22;17.73;;;;;;;32.41;56.14;98366.19;5011051;28;20484;-68
2022/03/14 08:38:57;;;;;;;36.72;18.50;;;;;;;32.45;54.73;98366.66;5004475;28;20408;-68
2022/03/14 08:41:48;;;;;;;38.08;19.17;;;;;;;32.06;55.17;98370.59;4990393;28;20107;-68
2022/03/14 08:44:30;;;;;;;35.22;18.35;;;;;;;32.02;54.75;98363.97;5006678;28;20081;-68
2022/03/14 08:47:19;;;;;;;43.83;20.25;;;;;;;32.09;55.83;98362.19;5023385;28;20045;-67
2022/03/14 08:50:02;;;;;;;46.78;19.45;;;;;;;32.17;56.89;98347.94;5012237;28;20073;-67
2022/03/14 08:52:52;;;;;;;42.50;21.05;;;;;;;32.13;56.37;98344.81;5012164;28;20847;-68
2022/03/14 08:55:41;;;;;;;40.95;19.13;;;;;;;32.20;56.43;98348.38;5012325;28;20100;-68
2022/03/14 08:58:24;;;;;;;40.63;18.23;;;;;;;32.19;53.98;98349.41;5002693;28;20095;-68
2022/03/14 09:01:13;;;;;;;36.22;17.48;;;;;;;31.82;54.54;98338.97;5018420;28;20278;-68
2022/03/14 09:04:07;;;;;;;40.28;18.25;;;;;;;31.96;54.96;98334.59;5015696;28;20527;-68
2022/03/14 09:06:43;;;;;;;37.35;18.25;;;;;;;31.96;54.02;98334.59;5007317;28;20050;-68
2022/03/14 09:09:31;;;;;;;37.78;18.10;;;;;;;32.00;54.61;98326.03;5007049;28;20060;-68
2022/03/14 09:12:15;;;;;;;32.17;18.15;;;;;;;31.97;55.59;98314.91;5011474;28;20053;-67
2022/03/14 09:15:06;;;;;;;33.75;18.08;;;;;;;31.74;53.60;98309.78;5017336;28;20045;-68
2022/03/14 09:18:00;;;;;;;38.17;19.02;;;;;;;31.72;55.33;98306.47;5018911;28;20189;-68
2022/03/14 09:20:56;;;;;;;38.55;18.85;;;;;;;31.76;54.49;98303.25;4994966;28;20048;-68
2022/03/14 09:23:31;;;;;;;37.75;19.45;;;;;;;31.72;55.34;98293.97;5026777;28;20053;-66
2022/03/14 09:26:26;;;;;;;44.75;19.90;;;;;;;31.72;55.19;98296.63;5025183;28;20052;-68
2022/03/14 09:29:03;;;;;;;42.90;21.85;;;;;;;31.71;55.80;98288.81;5006266;28;20128;-68
2022/03/14 09:31:58;;;;;;;38.95;20.17;;;;;;;31.71;56.15;98288.81;5026385;28;20049;-68
2022/03/14 09:34:36;;;;;;;42.65;21.83;;;;;;;31.73;56.71;98281.47;5026380;28;20061;-68
2022/03/14 09:37:28;;;;;;;41.45;22.17;;;;;;;31.77;56.48;98275.56;5012905;28;20049;-66
2022/03/14 09:40:12;;;;;;;46.67;24.58;;;;;;;31.78;58.53;98273.72;4978926;28;20257;-68
2022/03/14 09:43:08;;;;;;;40.03;23.77;;;;;;;31.60;58.56;98276.00;5028251;28;20041;-68
2022/03/14 09:45:51;;;;;;;49.88;23.42;;;;;;;31.57;56.20;98271.84;5023083;28;20441;-67
2022/03/14 09:48:42;;;;;;;45.03;24.65;;;;;;;31.48;57.98;98268.50;5012766;28;20516;-68
2022/03/14 09:51:25;;;;;;;51.95;26.27;;;;;;;31.49;57.17;98264.81;4993362;28;20050;-68
2022/03/14 09:54:16;;;;;;;43.15;23.65;;;;;;;31.28;59.12;98263.97;5017593;28;20045;-68
2022/03/14 09:57:03;;;;;;;57.05;24.55;;;;;;;31.29;59.70;98258.44;5012471;28;20041;-69
2022/03/14 09:59:54;;;;;;;47.15;25.85;;;;;;;31.38;59.28;98259.16;5014982;28;20053;-70
2022/03/14 10:02:46;;;;;;;43.70;25.75;;;;;;;31.21;57.86;98253.22;5026970;28;20058;-69
2022/03/14 10:05:36;;;;;;;51.25;27.65;;;;;;;31.12;57.59;98249.03;5003766;28;20053;-70
2022/03/14 10:08:18;;;;;;;59.47;27.05;;;;;;;31.22;58.90;98246.88;5006208;28;20596;-70
2022/03/14 10:11:06;;;;;;;51.75;27.63;;;;;;;31.33;58.39;98251.72;5007626;28;20069;-67
2022/03/14 10:13:54;;;;;;;54.25;24.95;;;;;;;31.28;58.76;98250.66;5006669;28;20046;-67
2022/03/14 10:16:37;;;;;;;64.93;26.63;;;;;;;31.28;56.22;98234.69;5007184;28;20052;-67
2022/03/14 10:19:40;;;;;;;56.10;27.27;;;;;;;31.33;57.14;98237.59;5012735;28;20045;-67
2022/03/14 10:22:18;;;;;;;49.42;23.70;;;;;;;31.24;57.08;98234.22;5023135;28;20064;-68
2022/03/14 10:25:15;;;;;;;55.50;23.60;;;;;;;31.18;56.60;98242.97;5018034;28;20053;-68
2022/03/14 10:28:00;;;;;;;48.13;23.70;;;;;;;31.22;57.11;98230.91;5004620;28;20049;-69
2022/03/14 10:30:54;;;;;;;43.13;23.02;;;;;;;31.19;56.28;98236.63;5007854;28;20046;-69
2022/03/14 10:33:31;;;;;;;43.30;21.88;;;;;;;31.17;55.52;98238.66;5008932;28;20041;-69
2022/03/14 10:36:38;;;;;;;48.10;20.25;;;;;;;31.15;54.61;98240.66;5011882;28;20062;-68
2022/03/14 10:39:28;;;;;;;43.00;20.33;;;;;;;31.15;54.19;98235.34;5016875;28;20053;-69
2022/03/14 10:42:17;;;;;;;42.60;21.00;;;;;;;31.18;55.39;98237.63;5017713;28;20042;-68
2022/03/14 10:45:20;;;;;;;48.03;19.58;;;;;;;31.19;55.02;98236.63;5009583;28;20045;-68
2022/03/14 10:47:57;;;;;;;46.10;18.42;;;;;;;31.15;53.19;98240.66;5005993;28;21398;-68
2022/03/14 10:50:44;;;;;;;36.95;17.15;;;;;;;31.14;50.49;98237.19;5005488;28;20045;-68
2022/03/14 10:53:26;;;;;;;38.45;17.08;;;;;;;31.14;50.62;98236.34;5004831;28;20074;-69
2022/03/14 10:56:19;;;;;;;34.08;18.58;;;;;;;31.10;53.23;98227.09;5004870;28;20076;-69
2022/03/14 10:59:13;;;;;;;36.13;18.13;;;;;;;31.08;53.35;98223.78;5005547;28;20046;-70
2022/03/14 11:02:02;;;;;;;40.80;19.48;;;;;;;31.05;53.01;98224.16;5006671;28;20045;-69
2022/03/14 11:04:53;;;;;;;44.40;19.90;;;;;;;31.03;54.69;98226.19;5006691;28;20056;-69
2022/03/14 11:07:35;;;;;;;39.67;18.17;;;;;;;30.98;53.20;98223.22;5005512;28;20148;-69
2022/03/14 11:10:23;;;;;;;39.28;18.52;;;;;;;30.91;53.59;98223.16;5006159;28;20045;-69
2022/03/14 11:13:19;;;;;;;40.72;19.30;;;;;;;30.91;54.17;98219.66;5006355;28;20058;-69
2022/03/14 11:15:56;;;;;;;41.83;19.38;;;;;;;30.87;55.27;98224.56;5005688;28;20060;-69
2022/03/14 11:18:46;;;;;;;37.42;20.58;;;;;;;30.78;56.13;98217.69;4991097;28;20525;-69
2022/03/14 11:21:28;;;;;;;47.10;20.75;;;;;;;30.71;56.33;98216.78;5005328;28;20466;-69
2022/03/14 11:24:18;;;;;;;41.20;20.63;;;;;;;30.63;56.63;98225.69;4987902;28;20054;-69
2022/03/14 11:26:59;;;;;;;40.88;20.42;;;;;;;30.53;56.16;98219.81;5004829;28;20152;-69
2022/03/14 11:29:54;;;;;;;33.70;19.92;;;;;;;30.54;55.37;98221.47;5005681;28;20046;-69
2022/03/14 11:32:30;;;;;;;39.03;19.00;;;;;;;30.51;55.02;98228.97;5005963;28;20406;-68
2022/03/14 11:35:26;;;;;;;35.67;18.00;;;;;;;30.44;54.43;98218.22;5006078;28;20045;-68
2022/03/14 11:38:04;;;;;;;40.78;18.60;;;;;;;30.39;54.29;98228.56;5003955;28;20060;-68
2022/03/14 11:40:59;;;;;;;37.75;17.73;;;;;;;30.28;54.77;98215.72;5005853;28;20044;-69
2022/03/14 11:43:39;;;;;;;44.35;20.35;;;;;;;30.27;54.91;98222.88;5003875;28;20073;-69
2022/03/14 11:46:54;;;;;;;37.58;19.40;;;;;;;30.21;55.73;98214.81;4985980;28;20050;-68
2022/03/14 11:49:43;;;;;;;45.83;20.20;;;;;;;30.17;56.78;98216.19;5005444;28;20046;-68
2022/03/14 11:52:28;;;;;;;52.05;22.88;;;;;;;30.13;59.41;98205.06;5007339;28;20665;-69
2022/03/14 11:55:29;;;;;;;47.60;23.35;;;;;;;30.09;59.95;98214.44;5004899;28;20052;-70
2022/03/14 11:58:41;;;;;;;55.33;25.45;;;;;;;30.05;61.05;98210.47;5010484;28;20073;-69
2022/03/14 12:01:55;;;;;;;60.55;26.50;;;;;;;30.05;61.38;98205.16;5004654;28;20054;-70
2022/03/14 12:04:34;;;;;;;55.83;25.60;;;;;;;29.98;61.77;98204.22;5006249;28;20775;-71
2022/03/14 12:07:31;;;;;;;49.55;23.95;;;;;;;29.89;63.35;98200.78;5010671;28;20049;-72
2022/03/14 12:10:33;;;;;;;68.55;24.27;;;;;;;29.82;62.79;98204.34;5004286;28;20613;-69
2022/03/14 12:13:46;;;;;;;51.88;24.33;;;;;;;29.67;63.45;98201.66;4984843;28;20050;-71
2022/03/14 12:16:52;;;;;;;57.97;26.20;;;;;;;29.50;64.71;98208.09;5004354;28;20042;-71
2022/03/14 12:20:04;;;;;;;52.70;23.92;;;;;;;29.39;65.30;98208.50;4995788;28;20053;-71
2022/03/14 12:22:53;;;;;;;62.80;24.65;;;;;;;29.27;65.94;98205.41;5009646;28;20046;-71
2022/03/14 12:25:41;;;;;;;69.93;24.55;;;;;;;29.16;66.57;98209.28;5013380;28;20108;-71
2022/03/14 12:28:31;;;;;;;59.22;25.67;;;;;;;29.08;66.42;98214.63;5006429;28;20064;-71
2022/03/14 12:31:16;;;;;;;46.38;23.65;;;;;;;28.94;67.45;98215.38;5006586;28;20073;-71
2022/03/14 12:34:16;;;;;;;60.38;27.77;;;;;;;28.83;67.95;98213.94;4996875;28;20108;-71
2022/03/14 12:37:37;;;;;;;59.22;26.17;;;;;;;28.71;69.11;98219.75;5008076;28;20050;-69
2022/03/14 12:40:26;;;;;;;49.72;26.20;;;;;;;28.68;70.05;98217.44;4992235;28;20045;-72
2022/03/14 12:43:16;;;;;;;65.90;27.42;;;;;;;28.58;71.05;98214.16;5007087;28;20564;-70
2022/03/14 12:46:12;;;;;;;51.83;26.35;;;;;;;28.48;71.69;98219.69;5019093;28;20070;-71